Time;durP1;ratioP1;P1;durP2;ratioP2;P2;SDS_P1;SDS_P2;PMS_P1;PMS_P2;Temp;Humidity;BMP_temperature;BMP_pressure;BME280_temperature;BME280_humidity;BME280_pressure;Samples;Min_cycle;Max_cycle;Signal;HPM_P1;HPM_P2
2023/10/25 00:02:04;;;;;;;22.40;15.80;;;;;;;11.44;100.00;99014.19;105501;1255;69209;-64
2023/10/25 00:04:33;;;;;;;23.10;17.10;;;;;;;11.45;100.00;99013.10;105518;1255;71417;-63
2023/10/25 00:07:01;;;;;;;23.50;17.20;;;;;;;11.46;100.00;99009.67;105597;1255;81924;-65
2023/10/25 00:09:30;;;;;;;22.50;17.10;;;;;;;11.47;100.00;99015.20;105499;1253;73114;-64
2023/10/25 00:11:58;;;;;;;26.30;17.40;;;;;;;11.48;100.00;99018.69;105522;1253;69069;-64
2023/10/25 00:14:27;;;;;;;24.70;17.50;;;;;;;11.47;100.00;99018.75;105501;1255;69228;-64
2023/10/25 00:16:55;;;;;;;25.10;17.80;;;;;;;11.47;100.00;99021.89;105593;1253;71861;-64
2023/10/25 00:19:24;;;;;;;25.20;18.20;;;;;;;11.47;100.00;99018.71;105540;1256;82805;-64
2023/10/25 00:21:52;;;;;;;24.90;18.10;;;;;;;11.46;100.00;99018.77;105481;1253;71906;-64
2023/10/25 00:24:20;;;;;;;24.90;18.20;;;;;;;11.44;100.00;99020.84;105520;1252;69159;-65
2023/10/25 00:26:48;;;;;;;28.90;19.30;;;;;;;11.43;100.00;99021.96;105500;1255;69190;-65
2023/10/25 00:29:17;;;;;;;25.20;19.00;;;;;;;11.42;100.00;99021.83;105562;1253;73817;-65
2023/10/25 00:31:45;;;;;;;28.30;19.90;;;;;;;11.44;100.00;99023.31;105536;1254;81665;-61
2023/10/25 00:34:13;;;;;;;25.30;19.80;;;;;;;11.44;100.00;99021.73;105535;1255;72997;-62
2023/10/25 00:36:41;;;;;;;25.50;19.40;;;;;;;11.44;100.00;99025.20;105533;1252;69205;-62
2023/10/25 00:39:10;;;;;;;26.40;18.60;;;;;;;11.46;100.00;99027.92;105524;1256;69127;-63
2023/10/25 00:41:39;;;;;;;24.30;18.10;;;;;;;11.46;100.00;99030.14;105501;1253;72626;-63
2023/10/25 00:44:07;;;;;;;22.30;17.90;;;;;;;11.46;100.00;99031.21;105526;1255;81431;-63
2023/10/25 00:46:36;;;;;;;22.60;17.40;;;;;;;11.44;100.00;99026.94;105467;1253;70931;-63
2023/10/25 00:49:06;;;;;;;21.20;17.80;;;;;;;11.44;100.00;99027.52;105540;1257;69213;-63
2023/10/25 00:51:35;;;;;;;22.10;17.90;;;;;;;11.44;100.00;99026.25;105562;1253;69633;-62
2023/10/25 00:54:04;;;;;;;20.70;17.60;;;;;;;11.46;100.00;99023.71;105548;1253;72671;-62
2023/10/25 00:56:35;;;;;;;24.10;18.80;;;;;;;11.47;100.00;99021.04;105563;1253;81478;-61
2023/10/25 00:59:04;;;;;;;21.20;18.30;;;;;;;11.46;100.00;99023.34;105523;1253;71975;-61
2023/10/25 01:01:32;;;;;;;23.10;18.10;;;;;;;11.46;100.00;99022.63;105549;1255;69196;-62
2023/10/25 01:04:00;;;;;;;24.30;19.90;;;;;;;11.47;100.00;99021.02;105533;1253;70305;-61
2023/10/25 01:06:29;;;;;;;23.10;19.40;;;;;;;11.48;100.00;99017.84;105551;1253;72622;-62
2023/10/25 01:08:59;;;;;;;22.70;19.50;;;;;;;11.47;100.00;99019.25;105533;1255;81737;-61
2023/10/25 01:11:27;;;;;;;22.00;19.20;;;;;;;11.48;100.00;99020.58;105579;1255;71959;-61
2023/10/25 01:13:55;;;;;;;22.20;18.70;;;;;;;11.49;100.00;99023.52;105541;1255;69097;-61
2023/10/25 01:16:24;;;;;;;22.90;19.60;;;;;;;11.47;100.00;99017.98;105542;1256;69141;-61
2023/10/25 01:18:52;;;;;;;23.40;19.00;;;;;;;11.47;100.00;99017.16;105580;1253;74095;-61
2023/10/25 01:21:21;;;;;;;21.90;18.70;;;;;;;11.47;100.00;99016.45;105438;1257;81222;-61
2023/10/25 01:23:55;;;;;;;23.80;20.50;;;;;;;11.46;100.00;99012.48;105593;1253;71454;-62
2023/10/25 01:26:23;;;;;;;24.80;19.70;;;;;;;11.46;100.00;99011.10;105510;1255;69121;-61
2023/10/25 01:28:51;;;;;;;25.40;22.00;;;;;;;11.46;100.00;99015.16;105512;1256;69278;-61
2023/10/25 01:31:19;;;;;;;26.40;20.40;;;;;;;11.45;100.00;99018.16;105499;1253;72733;-61
2023/10/25 01:33:51;;;;;;;26.20;20.50;;;;;;;11.43;100.00;99014.09;105533;1255;82939;-61
2023/10/25 01:36:19;;;;;;;26.10;20.20;;;;;;;11.43;100.00;99012.54;105488;1258;70943;-61
2023/10/25 01:38:47;;;;;;;24.40;20.60;;;;;;;11.42;100.00;99011.35;105497;1254;69069;-61
2023/10/25 01:41:16;;;;;;;29.20;21.10;;;;;;;11.42;100.00;99006.27;105528;1256;69208;-61
2023/10/25 01:43:44;;;;;;;27.90;22.80;;;;;;;11.42;100.00;99006.15;105539;1253;73730;-61
2023/10/25 01:46:12;;;;;;;27.70;22.10;;;;;;;11.42;100.00;99014.19;105562;1253;82915;-61
2023/10/25 01:48:43;;;;;;;31.40;24.60;;;;;;;11.41;100.00;99018.23;105501;1253;71940;-61
2023/10/25 01:51:11;;;;;;;29.30;25.80;;;;;;;11.40;100.00;99018.81;105534;1253;69259;-60
2023/10/25 01:53:39;;;;;;;29.40;23.20;;;;;;;11.39;100.00;99020.62;105581;1252;69178;-61
2023/10/25 01:56:08;;;;;;;30.30;23.70;;;;;;;11.38;100.00;99027.66;105487;1253;72161;-61
2023/10/25 01:58:36;;;;;;;34.50;25.00;;;;;;;11.38;100.00;99024.52;105471;1258;82835;-61
2023/10/25 02:01:06;;;;;;;30.70;24.70;;;;;;;11.38;100.00;99021.73;105476;1253;72187;-61
2023/10/25 02:03:34;;;;;;;31.50;25.90;;;;;;;11.37;100.00;99015.50;105472;1256;69199;-61
2023/10/25 02:06:12;;;;;;;33.20;27.10;;;;;;;11.36;100.00;99020.63;105548;1253;69076;-61
2023/10/25 02:08:40;;;;;;;36.10;27.40;;;;;;;11.35;100.00;99025.40;105502;1257;71734;-61
2023/10/25 02:11:08;;;;;;;32.00;25.80;;;;;;;11.34;100.00;99025.64;105541;1255;82071;-60
2023/10/25 02:13:37;;;;;;;34.00;26.30;;;;;;;11.34;100.00;99026.89;105424;1257;73042;-61
2023/10/25 02:16:16;;;;;;;36.70;26.50;;;;;;;11.34;100.00;99029.35;105491;1255;69821;-61
2023/10/25 02:18:45;;;;;;;34.90;26.90;;;;;;;11.33;100.00;99035.86;105490;1253;69179;-60
2023/10/25 02:21:13;;;;;;;36.80;26.30;;;;;;;11.32;100.00;99039.39;105525;1253;74141;-61
2023/10/25 02:23:42;;;;;;;35.10;26.90;;;;;;;11.32;100.00;99044.33;105456;1253;81537;-61
2023/10/25 02:26:10;;;;;;;35.10;27.80;;;;;;;11.32;100.00;99042.21;105543;1253;71711;-61
2023/10/25 02:28:39;;;;;;;34.40;27.20;;;;;;;11.31;100.00;99043.48;105518;1255;69085;-61
2023/10/25 02:31:07;;;;;;;34.10;25.00;;;;;;;11.31;100.00;99041.95;105572;1253;69129;-61
2023/10/25 02:33:38;;;;;;;35.10;26.80;;;;;;;11.32;100.00;99041.18;105592;1255;74237;-61
2023/10/25 02:36:06;;;;;;;35.60;26.20;;;;;;;11.32;100.00;99045.88;105496;1253;80702;-61
2023/10/25 02:38:34;;;;;;;31.30;26.00;;;;;;;11.32;100.00;99049.41;105587;1253;72247;-61
2023/10/25 02:41:03;;;;;;;35.80;26.20;;;;;;;11.31;100.00;99052.09;105468;1255;69128;-61
2023/10/25 02:43:31;;;;;;;35.30;27.10;;;;;;;11.31;100.00;99053.16;105572;1253;69163;-61
2023/10/25 02:46:08;;;;;;;32.10;26.50;;;;;;;11.31;100.00;99055.23;105512;1253;73283;-61
2023/10/25 02:48:37;;;;;;;32.50;26.20;;;;;;;11.31;100.00;99053.14;105500;1259;81447;-61
2023/10/25 02:51:06;;;;;;;35.50;26.90;;;;;;;11.30;100.00;99058.63;105545;1253;72061;-61
2023/10/25 02:53:34;;;;;;;33.50;25.60;;;;;;;11.29;100.00;99063.41;105498;1258;69250;-61
2023/10/25 02:56:06;;;;;;;31.00;24.50;;;;;;;11.29;100.00;99064.60;105488;1255;69195;-61
2023/10/25 02:58:34;;;;;;;36.50;25.70;;;;;;;11.29;100.00;99067.20;105498;1253;73423;-61
2023/10/25 03:01:03;;;;;;;35.60;26.70;;;;;;;11.29;100.00;99069.16;105553;1256;81303;-61
2023/10/25 03:03:34;;;;;;;33.60;26.10;;;;;;;11.29;100.00;99066.38;105535;1256;71622;-60
2023/10/25 03:06:02;;;;;;;34.50;26.30;;;;;;;11.28;100.00;99064.34;105475;1257;69154;-61
2023/10/25 03:08:30;;;;;;;37.90;28.50;;;;;;;11.28;100.00;99067.30;105497;1255;69209;-61
2023/10/25 03:10:58;;;;;;;43.90;30.20;;;;;;;11.28;100.00;99066.44;105507;1257;72699;-62
2023/10/25 03:13:26;;;;;;;49.50;32.30;;;;;;;11.27;100.00;99064.41;105507;1257;81862;-62
2023/10/25 03:15:57;;;;;;;51.90;34.50;;;;;;;11.27;100.00;99064.88;105460;1253;71732;-62
2023/10/25 03:18:25;;;;;;;50.60;34.60;;;;;;;11.27;100.00;99068.08;105519;1253;69192;-62
2023/10/25 03:20:53;;;;;;;51.30;35.30;;;;;;;11.26;100.00;99065.34;105493;1256;70632;-62
2023/10/25 03:23:22;;;;;;;45.80;31.50;;;;;;;11.25;100.00;99064.85;105537;1255;73330;-63
2023/10/25 03:25:50;;;;;;;50.30;33.50;;;;;;;11.26;100.00;99066.40;105518;1256;81373;-62
2023/10/25 03:28:18;;;;;;;49.60;32.70;;;;;;;11.25;100.00;99067.65;105481;1259;72053;-62
2023/10/25 03:30:46;;;;;;;52.60;34.20;;;;;;;11.26;100.00;99071.10;105513;1255;69126;-62
2023/10/25 03:33:15;;;;;;;53.40;36.10;;;;;;;11.26;100.00;99071.30;105530;1255;69175;-62
2023/10/25 03:35:51;;;;;;;53.50;35.80;;;;;;;11.25;100.00;99075.18;105484;1253;73137;-62
2023/10/25 03:38:19;;;;;;;54.30;34.30;;;;;;;11.25;100.00;99073.45;105497;1255;81576;-62
2023/10/25 03:40:47;;;;;;;51.40;34.10;;;;;;;11.25;100.00;99073.44;105595;1256;71282;-62
2023/10/25 03:43:16;;;;;;;51.50;33.90;;;;;;;11.26;100.00;99070.96;105582;1253;69100;-62
2023/10/25 03:45:45;;;;;;;49.80;33.00;;;;;;;11.27;100.00;99073.50;105549;1255;69262;-61
2023/10/25 03:48:14;;;;;;;52.40;32.70;;;;;;;11.28;100.00;99076.55;105549;1253;72871;-61
2023/10/25 03:50:42;;;;;;;50.80;33.30;;;;;;;11.29;100.00;99072.86;105534;1256;82626;-61
2023/10/25 03:53:10;;;;;;;51.90;34.70;;;;;;;11.29;100.00;99078.62;105614;1254;72200;-61
2023/10/25 03:55:38;;;;;;;51.60;32.20;;;;;;;11.29;100.00;99081.40;105476;1253;69150;-61
2023/10/25 03:58:06;;;;;;;56.30;34.00;;;;;;;11.29;100.00;99085.77;105483;1254;69206;-61
2023/10/25 04:00:34;;;;;;;52.10;33.00;;;;;;;11.29;100.00;99082.80;105470;1253;73254;-61
2023/10/25 04:03:03;;;;;;;51.60;32.50;;;;;;;11.29;100.00;99081.58;105496;1256;82696;-61
2023/10/25 04:05:31;;;;;;;50.30;33.00;;;;;;;11.29;100.00;99082.10;105498;1255;73159;-61
2023/10/25 04:07:59;;;;;;;46.20;31.50;;;;;;;11.29;100.00;99080.15;105488;1253;69195;-61
2023/10/25 04:10:28;;;;;;;50.90;32.40;;;;;;;11.30;100.00;99077.13;105648;1255;69887;-61
2023/10/25 04:12:59;;;;;;;48.40;31.20;;;;;;;11.30;100.00;99077.11;105541;1254;72268;-61
2023/10/25 04:15:30;;;;;;;50.50;31.20;;;;;;;11.30;100.00;99075.39;105523;1255;82687;-61
2023/10/25 04:17:58;;;;;;;48.70;30.60;;;;;;;11.30;100.00;99076.79;105537;1253;71960;-61
2023/10/25 04:20:32;;;;;;;46.20;29.80;;;;;;;11.31;100.00;99078.67;105547;1253;69114;-61
2023/10/25 04:23:00;;;;;;;46.70;28.40;;;;;;;11.31;100.00;99079.89;105535;1253;69110;-60
2023/10/25 04:25:28;;;;;;;47.30;28.20;;;;;;;11.30;100.00;99081.54;105492;1254;73323;-61
2023/10/25 04:27:56;;;;;;;41.00;27.80;;;;;;;11.30;100.00;99085.35;105481;1255;82064;-61
2023/10/25 04:30:25;;;;;;;46.50;29.40;;;;;;;11.30;100.00;99086.27;105467;1255;71991;-61
2023/10/25 04:32:53;;;;;;;45.40;27.70;;;;;;;11.30;100.00;99087.42;105513;1254;69287;-60
2023/10/25 04:35:21;;;;;;;47.10;28.10;;;;;;;11.30;100.00;99086.21;105670;1252;69112;-60
2023/10/25 04:37:49;;;;;;;40.90;27.00;;;;;;;11.30;100.00;99082.02;105590;1253;74693;-61
2023/10/25 04:40:18;;;;;;;44.30;27.50;;;;;;;11.29;100.00;99082.80;105571;1253;81307;-60
2023/10/25 04:42:48;;;;;;;43.90;28.60;;;;;;;11.28;100.00;99085.82;105745;1256;71726;-61
2023/10/25 04:45:16;;;;;;;;;;;;;;;11.28;100.00;99084.78;105602;1254;69095;-61
2023/10/25 04:47:45;;;;;;;42.60;27.00;;;;;;;11.28;100.00;99083.89;105802;1255;69170;-61
2023/10/25 04:50:13;;;;;;;46.60;29.10;;;;;;;11.28;100.00;99082.34;105808;1255;72819;-62
2023/10/25 04:52:41;;;;;;;46.20;28.60;;;;;;;11.30;100.00;99080.83;105649;1255;81703;-60
2023/10/25 04:55:11;;;;;;;47.30;29.10;;;;;;;11.31;100.00;99079.91;105565;1254;71293;-61
2023/10/25 04:57:39;;;;;;;44.60;27.70;;;;;;;11.30;100.00;99083.08;105718;1256;69132;-61
2023/10/25 05:00:09;;;;;;;47.60;28.40;;;;;;;11.30;100.00;99084.48;105579;1254;69259;-60
2023/10/25 05:02:38;;;;;;;46.10;28.30;;;;;;;11.31;100.00;99088.27;105818;1253;73148;-63
2023/10/25 05:05:08;;;;;;;49.30;27.90;;;;;;;11.31;100.00;99088.46;105697;1255;82912;-64
2023/10/25 05:07:37;;;;;;;42.00;25.80;;;;;;;11.32;100.00;99085.92;105617;1253;72485;-64
2023/10/25 05:10:08;;;;;;;43.50;26.00;;;;;;;11.33;100.00;99081.35;105712;1253;69924;-64
2023/10/25 05:12:41;;;;;;;39.30;25.20;;;;;;;11.33;100.00;99086.73;105615;1258;69068;-63
2023/10/25 05:15:11;;;;;;;35.70;23.20;;;;;;;11.34;100.00;99088.42;105693;1255;73280;-63
2023/10/25 05:17:40;;;;;;;39.80;23.90;;;;;;;11.35;100.00;99091.88;105646;1253;82176;-64
2023/10/25 05:20:09;;;;;;;34.20;21.60;;;;;;;11.35;100.00;99093.58;105551;1259;70986;-63
2023/10/25 05:22:42;;;;;;;32.40;20.30;;;;;;;11.36;100.00;99095.83;105512;1253;69202;-64
2023/10/25 05:25:11;;;;;;;30.30;19.90;;;;;;;11.36;100.00;99100.88;105512;1256;69186;-64
2023/10/25 05:27:39;;;;;;;28.70;18.40;;;;;;;11.37;100.00;99104.73;105577;1253;72572;-61
2023/10/25 05:30:09;;;;;;;23.70;16.60;;;;;;;11.37;100.00;99108.54;105946;1257;81790;-59
2023/10/25 05:32:38;;;;;;;;;;;;;;;11.37;100.00;99107.86;105671;1258;73453;-60
2023/10/25 05:35:08;;;;;;;23.90;16.00;;;;;;;11.36;100.00;99109.98;105766;1253;69123;-60
2023/10/25 05:37:36;;;;;;;20.70;15.70;;;;;;;11.36;100.00;99111.95;105572;1256;69173;-60
2023/10/25 05:40:06;;;;;;;23.90;16.10;;;;;;;11.36;100.00;99116.84;105642;1256;72634;-60
2023/10/25 05:42:47;;;;;;;25.10;16.40;;;;;;;11.35;100.00;99117.92;105642;1255;81579;-60
2023/10/25 05:45:16;;;;;;;26.40;17.00;;;;;;;11.35;100.00;99119.52;105706;1254;71968;-60
2023/10/25 05:47:44;;;;;;;27.50;18.00;;;;;;;11.35;100.00;99123.69;105683;1253;69056;-60
2023/10/25 05:50:13;;;;;;;23.90;16.80;;;;;;;11.35;100.00;99131.42;105606;1256;69197;-59
2023/10/25 05:52:45;;;;;;;26.20;16.00;;;;;;;11.34;100.00;99130.75;105597;1254;73525;-60
2023/10/25 05:55:15;;;;;;;26.60;16.10;;;;;;;11.34;100.00;99129.05;105655;1255;82642;-60
2023/10/25 05:57:45;;;;;;;29.40;18.50;;;;;;;11.34;100.00;99123.61;105739;1254;70839;-60
2023/10/25 06:00:15;;;;;;;26.50;16.90;;;;;;;11.35;100.00;99129.98;105764;1256;69138;-60
2023/10/25 06:02:43;;;;;;;26.70;16.70;;;;;;;11.35;100.00;99129.09;105651;1257;69171;-60
2023/10/25 06:05:13;;;;;;;24.40;16.70;;;;;;;11.36;100.00;99131.88;105734;1255;72868;-60
2023/10/25 06:07:42;;;;;;;20.50;14.80;;;;;;;11.36;100.00;99131.34;105569;1259;81574;-59
2023/10/25 06:10:11;;;;;;;21.60;15.20;;;;;;;11.36;100.00;99133.09;105625;1253;72976;-57
2023/10/25 06:12:40;;;;;;;20.50;14.50;;;;;;;11.36;100.00;99129.94;105642;1256;69116;-59
2023/10/25 06:15:10;;;;;;;19.30;13.70;;;;;;;11.36;100.00;99123.11;105573;1257;69203;-59
2023/10/25 06:17:38;;;;;;;20.10;14.10;;;;;;;11.38;100.00;99126.51;105524;1258;73007;-59
2023/10/25 06:20:07;;;;;;;21.10;14.50;;;;;;;11.38;100.00;99124.36;105435;1258;81725;-60
2023/10/25 06:22:35;;;;;;;17.40;13.10;;;;;;;11.38;100.00;99129.80;105468;1257;71824;-59
2023/10/25 06:25:05;;;;;;;17.30;12.40;;;;;;;11.39;100.00;99132.90;105428;1253;69092;-59
2023/10/25 06:27:33;;;;;;;17.60;12.20;;;;;;;11.40;100.00;99130.58;105501;1259;69149;-60
2023/10/25 06:30:02;;;;;;;16.70;12.60;;;;;;;11.42;100.00;99133.24;105543;1257;72899;-61
2023/10/25 06:32:30;;;;;;;14.20;11.30;;;;;;;11.44;100.00;99132.08;105526;1258;80370;-60
2023/10/25 06:34:59;;;;;;;17.20;11.50;;;;;;;11.45;100.00;99132.37;105478;1256;72062;-60
2023/10/25 06:37:27;;;;;;;12.20;10.00;;;;;;;11.47;100.00;99131.23;105487;1256;69136;-60
2023/10/25 06:39:56;;;;;;;12.90;10.40;;;;;;;11.47;100.00;99134.52;105544;1255;69178;-60
2023/10/25 06:42:25;;;;;;;12.40;9.80;;;;;;;11.49;100.00;99135.29;105736;1255;73185;-60
2023/10/25 06:44:54;;;;;;;14.30;9.90;;;;;;;11.51;100.00;99137.95;105687;1254;81760;-60
2023/10/25 06:47:25;;;;;;;10.80;9.40;;;;;;;11.53;100.00;99144.12;105742;1255;70357;-60
2023/10/25 06:49:54;;;;;;;10.60;9.10;;;;;;;11.55;100.00;99144.01;105673;1252;69100;-60
2023/10/25 06:52:23;;;;;;;12.30;9.70;;;;;;;11.56;100.00;99145.70;105661;1257;69141;-60
2023/10/25 06:54:53;;;;;;;13.20;10.30;;;;;;;11.57;100.00;99144.05;105612;1257;74516;-60
2023/10/25 06:57:21;;;;;;;;;;;;;;;11.58;100.00;99149.77;105608;1257;81329;-60
2023/10/25 06:59:50;;;;;;;12.60;10.10;;;;;;;11.58;100.00;99151.51;105652;1254;71610;-60
2023/10/25 07:02:46;;;;;;;12.00;10.10;;;;;;;11.59;100.00;99150.40;105645;1253;69177;-60
2023/10/25 07:05:16;;;;;;;10.80;9.70;;;;;;;11.60;100.00;99154.17;105558;1259;69210;-59
2023/10/25 07:07:45;;;;;;;13.00;10.30;;;;;;;11.62;100.00;99157.42;105708;1255;74266;-60
2023/10/25 07:10:13;;;;;;;11.20;9.10;;;;;;;11.63;100.00;99158.77;105667;1257;83500;-60
2023/10/25 07:12:42;;;;;;;10.00;8.70;;;;;;;11.63;100.00;99157.73;105787;1258;71796;-60
2023/10/25 07:15:11;;;;;;;10.90;8.00;;;;;;;11.62;100.00;99161.45;105478;1256;69165;-60
2023/10/25 07:17:39;;;;;;;9.00;7.70;;;;;;;11.62;100.00;99161.95;105567;1253;69197;-60
2023/10/25 07:20:11;;;;;;;11.00;7.40;;;;;;;11.63;100.00;99162.92;105578;1257;74519;-60
2023/10/25 07:22:40;;;;;;;8.20;6.90;;;;;;;11.65;100.00;99158.48;105607;1257;81433;-59
2023/10/25 07:25:08;;;;;;;8.40;6.60;;;;;;;11.67;100.00;99157.11;105531;1259;71768;-59
2023/10/25 07:27:37;;;;;;;7.90;6.20;;;;;;;11.69;100.00;99159.45;105564;1258;69119;-60
2023/10/25 07:30:05;;;;;;;6.50;5.50;;;;;;;11.71;100.00;99160.33;105517;1257;69412;-59
2023/10/25 07:32:35;;;;;;;6.30;4.80;;;;;;;11.74;100.00;99167.54;105693;1256;73328;-61
2023/10/25 07:35:04;;;;;;;5.90;4.50;;;;;;;11.79;100.00;99166.00;105537;1258;83606;-60
2023/10/25 07:37:32;;;;;;;4.60;4.00;;;;;;;11.82;100.00;99163.16;105458;1254;71153;-60
2023/10/25 07:40:05;;;;;;;3.90;3.20;;;;;;;11.84;100.00;99159.04;105482;1266;69253;-59
2023/10/25 07:42:34;;;;;;;3.70;3.10;;;;;;;11.88;100.00;99159.00;105673;1257;69142;-62
2023/10/25 07:45:03;;;;;;;4.10;3.20;;;;;;;11.91;100.00;99158.81;105725;1254;75360;-63
2023/10/25 07:47:31;;;;;;;3.60;3.00;;;;;;;11.94;100.00;99163.36;107345;1255;81708;-63
2023/10/25 07:50:00;;;;;;;5.00;4.40;;;;;;;11.96;100.00;99167.41;105716;1256;71959;-63
2023/10/25 07:52:29;;;;;;;6.10;4.20;;;;;;;11.99;100.00;99170.90;105611;1255;69005;-61
2023/10/25 07:54:57;;;;;;;5.30;3.60;;;;;;;12.03;100.00;99168.56;105676;1254;69094;-59
2023/10/25 07:57:26;;;;;;;4.10;3.10;;;;;;;12.08;100.00;99164.42;105673;1257;73010;-60
2023/10/25 08:00:14;;;;;;;3.80;3.30;;;;;;;12.13;100.00;99165.99;105497;1256;81500;-61
2023/10/25 08:02:42;;;;;;;4.90;3.10;;;;;;;12.19;100.00;99169.16;105529;1254;70611;-59
2023/10/25 08:05:11;;;;;;;5.50;3.60;;;;;;;12.21;100.00;99169.52;105590;1254;69158;-60
2023/10/25 08:07:41;;;;;;;5.40;3.30;;;;;;;12.22;100.00;99170.83;105522;1257;69776;-59
2023/10/25 08:10:10;;;;;;;3.50;2.90;;;;;;;12.25;100.00;99174.34;105643;1257;72938;-59
2023/10/25 08:12:38;;;;;;;3.10;2.50;;;;;;;12.30;100.00;99177.56;105512;1257;81937;-59
2023/10/25 08:15:07;;;;;;;4.20;3.00;;;;;;;12.33;100.00;99184.00;105525;1265;72100;-59
2023/10/25 08:17:35;;;;;;;4.50;2.90;;;;;;;12.32;100.00;99186.14;105586;1254;69077;-59
2023/10/25 08:20:05;;;;;;;3.80;2.70;;;;;;;12.34;100.00;99195.36;105490;1258;69184;-60
2023/10/25 08:22:35;;;;;;;3.50;2.20;;;;;;;12.33;100.00;99203.27;105553;1264;74307;-59
2023/10/25 08:25:08;;;;;;;2.80;2.10;;;;;;;12.33;100.00;99206.45;105549;1256;80721;-59
2023/10/25 08:27:37;;;;;;;3.60;2.10;;;;;;;12.33;100.00;99211.17;105563;1257;72093;-60
2023/10/25 08:30:06;;;;;;;4.00;2.50;;;;;;;12.35;100.00;99212.08;105595;1257;69049;-59
2023/10/25 08:32:34;;;;;;;4.00;2.80;;;;;;;12.38;100.00;99209.46;105623;1256;69136;-59
2023/10/25 08:35:04;;;;;;;3.10;2.60;;;;;;;12.40;100.00;99215.45;105667;1257;73820;-60
2023/10/25 08:37:32;;;;;;;3.80;2.70;;;;;;;12.42;100.00;99224.03;105590;1256;81610;-60
2023/10/25 08:40:00;;;;;;;5.50;2.70;;;;;;;12.45;100.00;99223.72;105568;1257;73011;-60
2023/10/25 08:42:28;;;;;;;4.80;3.50;;;;;;;12.50;100.00;99220.04;105534;1253;69074;-59
2023/10/25 08:44:56;;;;;;;6.10;4.10;;;;;;;12.53;100.00;99218.63;105530;1255;69205;-60
2023/10/25 08:47:25;;;;;;;6.50;4.60;;;;;;;12.54;100.00;99218.40;105508;1257;72925;-59
2023/10/25 08:49:53;;;;;;;5.30;4.10;;;;;;;12.56;100.00;99219.02;105548;1264;81666;-59
2023/10/25 08:52:25;;;;;;;4.50;3.90;;;;;;;12.56;100.00;99221.80;105488;1257;72876;-59
2023/10/25 08:54:53;;;;;;;5.40;4.10;;;;;;;12.57;100.00;99219.96;105518;1254;69120;-60
2023/10/25 08:57:21;;;;;;;5.00;3.60;;;;;;;12.60;100.00;99230.11;105506;1257;69132;-60
2023/10/25 08:59:51;;;;;;;5.50;3.50;;;;;;;12.63;100.00;99233.07;105610;1257;72205;-59
2023/10/25 09:02:20;;;;;;;;;;;;;;;12.65;100.00;99233.29;105586;1257;80824;-60
2023/10/25 09:04:58;;;;;;;3.80;3.30;;;;;;;12.66;100.00;99235.13;105522;1257;71905;-59
2023/10/25 09:07:31;;;;;;;5.50;3.70;;;;;;;12.69;100.00;99235.33;105429;1255;69273;-60
2023/10/25 09:10:00;;;;;;;4.00;3.30;;;;;;;12.70;100.00;99232.95;105616;1257;69209;-59
2023/10/25 09:12:28;;;;;;;4.40;3.60;;;;;;;12.75;100.00;99235.24;105575;1254;74547;-59
2023/10/25 09:14:56;;;;;;;3.80;3.40;;;;;;;12.80;100.00;99231.30;105606;1256;81482;-59
2023/10/25 09:17:25;;;;;;;6.20;4.10;;;;;;;12.80;100.00;99234.05;105559;1253;72827;-59
2023/10/25 09:19:53;;;;;;;4.20;3.80;;;;;;;12.81;100.00;99234.35;105509;1258;69105;-60
2023/10/25 09:22:25;;;;;;;4.80;3.50;;;;;;;12.84;100.00;99237.00;105540;1257;69174;-59
2023/10/25 09:24:59;;;;;;;4.00;3.60;;;;;;;12.85;100.00;99236.92;105527;1257;72960;-60
2023/10/25 09:27:28;;;;;;;4.10;3.70;;;;;;;12.86;100.00;99234.55;105586;1257;83064;-60
2023/10/25 09:30:12;;;;;;;4.60;4.00;;;;;;;12.87;100.00;99233.98;105537;1266;71684;-59
2023/10/25 09:32:54;;;;;;;4.90;4.40;;;;;;;12.84;100.00;99236.27;105615;1255;69273;-60
2023/10/25 09:35:23;;;;;;;4.80;4.00;;;;;;;12.79;100.00;99238.70;105552;1254;69204;-59
2023/10/25 09:37:51;;;;;;;4.50;4.00;;;;;;;12.76;100.00;99240.27;105624;1254;74002;-60
2023/10/25 09:40:20;;;;;;;4.30;3.90;;;;;;;12.76;100.00;99240.35;105545;1257;82051;-61
2023/10/25 09:42:52;;;;;;;5.60;4.40;;;;;;;12.73;100.00;99241.70;105495;1258;71718;-61
2023/10/25 09:45:23;;;;;;;6.40;5.50;;;;;;;12.72;100.00;99241.05;105596;1255;69196;-62
2023/10/25 09:47:55;;;;;;;15.70;10.00;;;;;;;12.75;100.00;99240.52;105575;1257;69177;-59
2023/10/25 09:50:32;;;;;;;9.30;7.40;;;;;;;12.78;100.00;99236.86;105543;1256;74246;-60
2023/10/25 09:53:27;;;;;;;7.70;4.90;;;;;;;12.82;100.00;99235.21;105438;1256;81506;-61
2023/10/25 09:56:02;;;;;;;5.60;5.00;;;;;;;12.84;100.00;99242.41;105510;1254;71760;-63
2023/10/25 09:58:34;;;;;;;6.60;5.20;;;;;;;12.86;100.00;99238.59;105483;1257;69185;-63
2023/10/25 10:01:03;;;;;;;6.50;5.80;;;;;;;12.91;100.00;99242.50;105505;1254;69186;-63
2023/10/25 10:03:44;;;;;;;6.50;5.30;;;;;;;12.93;100.00;99239.86;105551;1254;73494;-63
2023/10/25 10:06:29;;;;;;;6.90;5.10;;;;;;;12.97;100.00;99237.39;105455;1257;81561;-59
2023/10/25 10:09:13;;;;;;;7.00;5.60;;;;;;;13.00;100.00;99236.83;105449;1257;72130;-59
2023/10/25 10:11:47;;;;;;;6.90;4.60;;;;;;;12.99;100.00;99231.80;105470;1257;69152;-60
2023/10/25 10:14:44;;;;;;;5.30;4.20;;;;;;;12.94;100.00;99231.42;105472;1258;69185;-60
2023/10/25 10:17:14;;;;;;;5.60;5.00;;;;;;;12.88;100.00;99228.34;105342;1257;73250;-60
2023/10/25 10:19:44;;;;;;;5.50;4.50;;;;;;;12.89;100.00;99221.04;105477;1258;82466;-60
2023/10/25 10:22:18;;;;;;;5.70;4.70;;;;;;;12.99;100.00;99216.89;105478;1257;70474;-59
2023/10/25 10:24:56;;;;;;;5.30;4.70;;;;;;;13.07;100.00;99209.00;105480;1254;69098;-60
2023/10/25 10:27:27;;;;;;;8.10;4.90;;;;;;;13.13;100.00;99203.86;105441;1254;69506;-60
2023/10/25 10:29:55;;;;;;;4.80;3.90;;;;;;;13.16;100.00;99202.75;105429;1257;73234;-60
2023/10/25 10:32:27;;;;;;;5.00;4.30;;;;;;;13.22;100.00;99199.75;105481;1254;81550;-60
2023/10/25 10:34:59;;;;;;;4.70;3.90;;;;;;;13.26;100.00;99201.81;105415;1254;71535;-59
2023/10/25 10:37:32;;;;;;;5.00;3.30;;;;;;;13.26;100.00;99200.05;105435;1258;69172;-60
2023/10/25 10:40:03;;;;;;;4.20;3.60;;;;;;;13.26;100.00;99201.27;105473;1257;69142;-59
2023/10/25 10:42:33;;;;;;;4.20;3.30;;;;;;;13.29;100.00;99195.98;105481;1257;73218;-59
2023/10/25 10:45:07;;;;;;;6.80;3.40;;;;;;;13.40;100.00;99196.97;105427;1258;81454;-60
2023/10/25 10:47:50;;;;;;;5.30;3.30;;;;;;;13.42;100.00;99194.73;105489;1257;71913;-59
2023/10/25 10:50:23;;;;;;;4.80;3.20;;;;;;;13.45;100.00;99196.85;105465;1256;69116;-59
2023/10/25 10:52:52;;;;;;;6.60;3.90;;;;;;;13.50;100.00;99196.70;105376;1253;69173;-59
2023/10/25 10:55:23;;;;;;;4.60;3.50;;;;;;;13.68;100.00;99197.20;105458;1257;71775;-60
2023/10/25 10:57:52;;;;;;;6.90;4.60;;;;;;;13.81;100.00;99196.64;105464;1258;81472;-60
2023/10/25 11:00:25;;;;;;;5.00;3.70;;;;;;;13.91;100.00;99192.59;105097;1258;70680;-60
2023/10/25 11:02:54;;;;;;;18.10;10.70;;;;;;;14.00;100.00;99195.85;105027;1263;69343;-60
2023/10/25 11:05:23;;;;;;;3.20;2.90;;;;;;;14.01;100.00;99200.65;105111;1263;69208;-59
2023/10/25 11:07:53;;;;;;;7.60;5.20;;;;;;;14.05;100.00;99198.10;105109;1263;74278;-59
2023/10/25 11:10:22;;;;;;;3.30;3.00;;;;;;;14.18;100.00;99201.09;105089;1262;81570;-60
2023/10/25 11:12:50;;;;;;;4.90;3.20;;;;;;;14.17;100.00;99198.88;105104;1258;72155;-59
2023/10/25 11:15:24;;;;;;;3.60;3.10;;;;;;;14.13;100.00;99199.11;105112;1264;69291;-59
2023/10/25 11:17:52;;;;;;;3.30;3.00;;;;;;;14.16;100.00;99194.34;105086;1257;69707;-60
2023/10/25 11:20:21;;;;;;;3.80;3.40;;;;;;;14.19;100.00;99196.77;105563;1257;73380;-60
2023/10/25 11:22:50;;;;;;;3.50;3.00;;;;;;;14.21;100.00;99193.80;105447;1254;80658;-60